sensor_id;sensor_type;location;lat;lon;timestamp;P1;durP1;ratioP1;P2;durP2;ratioP2
20122;SDS011;10222;50.848;4.336;2023-07-09T00:01:40;15.27;;;8.02;;
20122;SDS011;10222;50.848;4.336;2023-07-09T00:04:11;12.30;;;7.00;;
20122;SDS011;10222;50.848;4.336;2023-07-09T00:06:37;13.38;;;6.43;;
20122;SDS011;10222;50.848;4.336;2023-07-09T00:09:03;15.38;;;7.35;;
20122;SDS011;10222;50.848;4.336;2023-07-09T00:11:30;14.32;;;7.22;;
20122;SDS011;10222;50.848;4.336;2023-07-09T00:13:56;14.75;;;7.78;;
20122;SDS011;10222;50.848;4.336;2023-07-09T00:16:24;13.95;;;7.18;;
20122;SDS011;10222;50.848;4.336;2023-07-09T00:18:50;12.57;;;6.63;;
20122;SDS011;10222;50.848;4.336;2023-07-09T00:21:20;11.20;;;6.50;;
20122;SDS011;10222;50.848;4.336;2023-07-09T00:23:46;12.23;;;6.43;;
20122;SDS011;10222;50.848;4.336;2023-07-09T00:26:14;11.57;;;6.82;;
20122;SDS011;10222;50.848;4.336;2023-07-09T00:28:40;9.82;;;6.05;;
20122;SDS011;10222;50.848;4.336;2023-07-09T00:31:09;10.93;;;6.00;;
20122;SDS011;10222;50.848;4.336;2023-07-09T00:33:37;15.90;;;6.97;;
20122;SDS011;10222;50.848;4.336;2023-07-09T00:36:04;11.57;;;6.28;;
20122;SDS011;10222;50.848;4.336;2023-07-09T00:38:32;14.05;;;6.88;;
20122;SDS011;10222;50.848;4.336;2023-07-09T00:41:05;11.68;;;6.40;;
20122;SDS011;10222;50.848;4.336;2023-07-09T00:43:35;11.15;;;5.93;;
20122;SDS011;10222;50.848;4.336;2023-07-09T00:46:09;10.65;;;6.10;;
20122;SDS011;10222;50.848;4.336;2023-07-09T00:48:37;12.88;;;6.05;;
20122;SDS011;10222;50.848;4.336;2023-07-09T00:51:04;12.75;;;6.10;;
20122;SDS011;10222;50.848;4.336;2023-07-09T00:53:34;10.88;;;6.00;;
20122;SDS011;10222;50.848;4.336;2023-07-09T00:56:05;11.63;;;6.10;;
20122;SDS011;10222;50.848;4.336;2023-07-09T00:58:32;12.85;;;6.03;;
20122;SDS011;10222;50.848;4.336;2023-07-09T01:01:00;10.82;;;5.93;;
20122;SDS011;10222;50.848;4.336;2023-07-09T01:03:35;10.13;;;5.43;;
20122;SDS011;10222;50.848;4.336;2023-07-09T01:06:02;11.32;;;6.03;;
20122;SDS011;10222;50.848;4.336;2023-07-09T01:08:30;8.93;;;5.22;;
20122;SDS011;10222;50.848;4.336;2023-07-09T01:10:58;8.35;;;5.03;;
20122;SDS011;10222;50.848;4.336;2023-07-09T01:13:24;10.65;;;5.63;;
20122;SDS011;10222;50.848;4.336;2023-07-09T01:15:52;11.68;;;5.13;;
20122;SDS011;10222;50.848;4.336;2023-07-09T01:18:18;10.88;;;5.28;;
20122;SDS011;10222;50.848;4.336;2023-07-09T01:20:46;10.38;;;5.07;;
20122;SDS011;10222;50.848;4.336;2023-07-09T01:23:12;8.73;;;5.15;;
20122;SDS011;10222;50.848;4.336;2023-07-09T01:25:41;8.10;;;4.82;;
20122;SDS011;10222;50.848;4.336;2023-07-09T01:28:08;9.95;;;5.22;;
20122;SDS011;10222;50.848;4.336;2023-07-09T01:30:38;12.73;;;5.63;;
20122;SDS011;10222;50.848;4.336;2023-07-09T01:33:04;8.27;;;4.95;;
20122;SDS011;10222;50.848;4.336;2023-07-09T01:35:31;11.30;;;5.13;;
20122;SDS011;10222;50.848;4.336;2023-07-09T01:37:58;6.88;;;4.20;;
20122;SDS011;10222;50.848;4.336;2023-07-09T01:40:25;9.23;;;4.72;;
20122;SDS011;10222;50.848;4.336;2023-07-09T01:42:52;8.48;;;4.65;;
20122;SDS011;10222;50.848;4.336;2023-07-09T01:45:20;8.10;;;4.70;;
20122;SDS011;10222;50.848;4.336;2023-07-09T01:47:46;10.85;;;5.40;;
20122;SDS011;10222;50.848;4.336;2023-07-09T01:50:12;9.65;;;5.05;;
20122;SDS011;10222;50.848;4.336;2023-07-09T01:52:42;10.18;;;4.97;;
20122;SDS011;10222;50.848;4.336;2023-07-09T01:55:10;10.50;;;4.95;;
20122;SDS011;10222;50.848;4.336;2023-07-09T01:57:36;10.43;;;5.45;;
20122;SDS011;10222;50.848;4.336;2023-07-09T02:00:10;8.98;;;4.90;;
20122;SDS011;10222;50.848;4.336;2023-07-09T02:02:38;10.05;;;4.82;;
20122;SDS011;10222;50.848;4.336;2023-07-09T02:05:07;8.90;;;4.25;;
20122;SDS011;10222;50.848;4.336;2023-07-09T02:07:34;8.10;;;4.43;;
20122;SDS011;10222;50.848;4.336;2023-07-09T02:10:00;9.10;;;4.60;;
20122;SDS011;10222;50.848;4.336;2023-07-09T02:12:27;9.70;;;3.80;;
20122;SDS011;10222;50.848;4.336;2023-07-09T02:14:53;8.73;;;4.28;;
20122;SDS011;10222;50.848;4.336;2023-07-09T02:17:19;8.07;;;4.13;;
20122;SDS011;10222;50.848;4.336;2023-07-09T02:19:45;9.63;;;4.38;;
20122;SDS011;10222;50.848;4.336;2023-07-09T02:22:11;6.82;;;4.38;;
20122;SDS011;10222;50.848;4.336;2023-07-09T02:24:37;8.00;;;4.38;;
20122;SDS011;10222;50.848;4.336;2023-07-09T02:27:04;8.50;;;4.45;;
20122;SDS011;10222;50.848;4.336;2023-07-09T02:29:31;8.25;;;4.22;;
20122;SDS011;10222;50.848;4.336;2023-07-09T02:31:57;8.75;;;3.72;;
20122;SDS011;10222;50.848;4.336;2023-07-09T02:34:27;6.90;;;3.70;;
20122;SDS011;10222;50.848;4.336;2023-07-09T02:36:54;6.00;;;3.20;;
20122;SDS011;10222;50.848;4.336;2023-07-09T02:39:20;6.90;;;3.30;;
20122;SDS011;10222;50.848;4.336;2023-07-09T02:41:47;5.88;;;3.45;;
20122;SDS011;10222;50.848;4.336;2023-07-09T02:44:13;5.47;;;3.45;;
20122;SDS011;10222;50.848;4.336;2023-07-09T02:46:39;8.95;;;3.70;;
20122;SDS011;10222;50.848;4.336;2023-07-09T02:49:05;5.13;;;3.10;;
20122;SDS011;10222;50.848;4.336;2023-07-09T02:51:33;5.72;;;3.33;;
20122;SDS011;10222;50.848;4.336;2023-07-09T02:53:59;6.13;;;2.88;;
20122;SDS011;10222;50.848;4.336;2023-07-09T02:56:26;9.73;;;3.45;;
20122;SDS011;10222;50.848;4.336;2023-07-09T02:58:53;5.25;;;2.75;;
20122;SDS011;10222;50.848;4.336;2023-07-09T03:01:19;4.85;;;2.65;;
20122;SDS011;10222;50.848;4.336;2023-07-09T03:03:52;5.53;;;2.83;;
20122;SDS011;10222;50.848;4.336;2023-07-09T03:06:19;4.13;;;2.65;;
20122;SDS011;10222;50.848;4.336;2023-07-09T03:08:45;5.40;;;3.00;;
20122;SDS011;10222;50.848;4.336;2023-07-09T03:11:12;5.32;;;2.58;;
20122;SDS011;10222;50.848;4.336;2023-07-09T03:13:38;5.57;;;3.00;;
20122;SDS011;10222;50.848;4.336;2023-07-09T03:16:04;6.18;;;2.92;;
20122;SDS011;10222;50.848;4.336;2023-07-09T03:18:31;3.50;;;2.10;;
20122;SDS011;10222;50.848;4.336;2023-07-09T03:20:57;4.75;;;2.92;;
20122;SDS011;10222;50.848;4.336;2023-07-09T03:23:23;6.22;;;2.60;;
20122;SDS011;10222;50.848;4.336;2023-07-09T03:25:49;6.97;;;2.97;;
20122;SDS011;10222;50.848;4.336;2023-07-09T03:28:15;4.38;;;2.38;;
20122;SDS011;10222;50.848;4.336;2023-07-09T03:30:42;7.40;;;3.17;;
20122;SDS011;10222;50.848;4.336;2023-07-09T03:33:09;4.43;;;2.42;;
20122;SDS011;10222;50.848;4.336;2023-07-09T03:35:35;7.47;;;3.03;;
20122;SDS011;10222;50.848;4.336;2023-07-09T03:38:03;5.25;;;3.22;;
20122;SDS011;10222;50.848;4.336;2023-07-09T03:40:29;5.35;;;2.83;;
20122;SDS011;10222;50.848;4.336;2023-07-09T03:42:55;8.02;;;3.35;;
20122;SDS011;10222;50.848;4.336;2023-07-09T03:45:21;6.22;;;2.90;;
20122;SDS011;10222;50.848;4.336;2023-07-09T03:47:47;4.63;;;2.95;;
20122;SDS011;10222;50.848;4.336;2023-07-09T03:50:13;5.05;;;3.22;;
20122;SDS011;10222;50.848;4.336;2023-07-09T03:52:39;4.47;;;2.65;;
20122;SDS011;10222;50.848;4.336;2023-07-09T03:55:05;4.38;;;2.53;;
20122;SDS011;10222;50.848;4.336;2023-07-09T03:57:31;5.78;;;3.08;;
20122;SDS011;10222;50.848;4.336;2023-07-09T03:59:57;7.47;;;3.30;;
20122;SDS011;10222;50.848;4.336;2023-07-09T04:02:23;5.85;;;3.05;;
20122;SDS011;10222;50.848;4.336;2023-07-09T04:04:49;6.68;;;3.50;;
20122;SDS011;10222;50.848;4.336;2023-07-09T04:07:15;6.57;;;3.60;;
20122;SDS011;10222;50.848;4.336;2023-07-09T04:09:41;6.75;;;3.70;;
20122;SDS011;10222;50.848;4.336;2023-07-09T04:12:08;5.93;;;2.85;;
20122;SDS011;10222;50.848;4.336;2023-07-09T04:14:34;8.40;;;3.85;;
20122;SDS011;10222;50.848;4.336;2023-07-09T04:17:01;7.38;;;3.53;;
20122;SDS011;10222;50.848;4.336;2023-07-09T04:19:27;6.82;;;3.53;;
20122;SDS011;10222;50.848;4.336;2023-07-09T04:21:53;5.55;;;2.90;;
20122;SDS011;10222;50.848;4.336;2023-07-09T04:24:19;5.97;;;3.45;;
20122;SDS011;10222;50.848;4.336;2023-07-09T04:26:46;8.70;;;3.42;;
20122;SDS011;10222;50.848;4.336;2023-07-09T04:29:13;5.40;;;3.10;;
20122;SDS011;10222;50.848;4.336;2023-07-09T04:31:40;5.85;;;3.03;;
20122;SDS011;10222;50.848;4.336;2023-07-09T04:34:06;5.35;;;3.58;;
20122;SDS011;10222;50.848;4.336;2023-07-09T04:36:33;5.38;;;2.95;;
20122;SDS011;10222;50.848;4.336;2023-07-09T04:38:59;6.88;;;3.42;;
20122;SDS011;10222;50.848;4.336;2023-07-09T04:41:25;5.85;;;3.17;;
20122;SDS011;10222;50.848;4.336;2023-07-09T04:43:51;10.48;;;3.45;;
20122;SDS011;10222;50.848;4.336;2023-07-09T04:46:17;8.48;;;3.50;;
20122;SDS011;10222;50.848;4.336;2023-07-09T04:48:43;8.38;;;3.63;;
20122;SDS011;10222;50.848;4.336;2023-07-09T04:51:09;7.05;;;4.00;;
20122;SDS011;10222;50.848;4.336;2023-07-09T04:53:35;9.43;;;3.75;;
20122;SDS011;10222;50.848;4.336;2023-07-09T04:56:01;8.25;;;3.58;;
20122;SDS011;10222;50.848;4.336;2023-07-09T04:58:28;6.15;;;3.63;;
20122;SDS011;10222;50.848;4.336;2023-07-09T05:00:56;6.50;;;4.07;;
20122;SDS011;10222;50.848;4.336;2023-07-09T05:03:22;6.70;;;3.47;;
20122;SDS011;10222;50.848;4.336;2023-07-09T05:05:48;7.47;;;3.40;;
20122;SDS011;10222;50.848;4.336;2023-07-09T05:08:14;9.95;;;3.95;;
20122;SDS011;10222;50.848;4.336;2023-07-09T05:10:45;6.07;;;3.55;;
20122;SDS011;10222;50.848;4.336;2023-07-09T05:13:11;8.15;;;4.07;;
20122;SDS011;10222;50.848;4.336;2023-07-09T05:15:41;6.60;;;3.70;;
20122;SDS011;10222;50.848;4.336;2023-07-09T05:18:07;5.70;;;3.35;;
20122;SDS011;10222;50.848;4.336;2023-07-09T05:20:34;6.70;;;3.40;;
20122;SDS011;10222;50.848;4.336;2023-07-09T05:23:00;10.60;;;3.90;;
20122;SDS011;10222;50.848;4.336;2023-07-09T05:25:26;8.50;;;3.47;;
20122;SDS011;10222;50.848;4.336;2023-07-09T05:27:52;8.13;;;3.70;;
20122;SDS011;10222;50.848;4.336;2023-07-09T05:30:18;7.82;;;3.38;;
20122;SDS011;10222;50.848;4.336;2023-07-09T05:32:44;7.38;;;3.80;;
20122;SDS011;10222;50.848;4.336;2023-07-09T05:35:10;6.05;;;3.42;;
20122;SDS011;10222;50.848;4.336;2023-07-09T05:37:37;8.32;;;4.00;;
20122;SDS011;10222;50.848;4.336;2023-07-09T05:40:03;8.55;;;4.32;;
20122;SDS011;10222;50.848;4.336;2023-07-09T05:42:30;10.05;;;3.63;;
20122;SDS011;10222;50.848;4.336;2023-07-09T05:44:56;8.00;;;3.90;;
20122;SDS011;10222;50.848;4.336;2023-07-09T05:47:22;7.47;;;3.72;;
20122;SDS011;10222;50.848;4.336;2023-07-09T05:49:48;6.80;;;3.65;;
20122;SDS011;10222;50.848;4.336;2023-07-09T05:52:19;6.40;;;3.05;;
20122;SDS011;10222;50.848;4.336;2023-07-09T05:54:45;6.43;;;3.20;;
20122;SDS011;10222;50.848;4.336;2023-07-09T05:57:11;7.80;;;4.18;;
20122;SDS011;10222;50.848;4.336;2023-07-09T05:59:37;8.52;;;3.40;;
20122;SDS011;10222;50.848;4.336;2023-07-09T06:02:03;5.80;;;3.53;;
20122;SDS011;10222;50.848;4.336;2023-07-09T06:04:29;7.20;;;3.70;;
20122;SDS011;10222;50.848;4.336;2023-07-09T06:06:56;5.03;;;2.90;;
20122;SDS011;10222;50.848;4.336;2023-07-09T06:09:22;6.90;;;3.30;;
20122;SDS011;10222;50.848;4.336;2023-07-09T06:11:48;6.10;;;3.00;;
20122;SDS011;10222;50.848;4.336;2023-07-09T06:14:14;6.25;;;3.15;;
20122;SDS011;10222;50.848;4.336;2023-07-09T06:16:42;6.20;;;3.55;;
20122;SDS011;10222;50.848;4.336;2023-07-09T06:19:08;8.63;;;3.95;;
20122;SDS011;10222;50.848;4.336;2023-07-09T06:21:34;8.77;;;3.83;;
20122;SDS011;10222;50.848;4.336;2023-07-09T06:24:00;8.52;;;4.03;;
20122;SDS011;10222;50.848;4.336;2023-07-09T06:26:26;6.93;;;3.60;;
20122;SDS011;10222;50.848;4.336;2023-07-09T06:28:52;8.77;;;4.60;;
20122;SDS011;10222;50.848;4.336;2023-07-09T06:31:18;5.95;;;3.95;;
20122;SDS011;10222;50.848;4.336;2023-07-09T06:33:45;9.35;;;4.63;;
20122;SDS011;10222;50.848;4.336;2023-07-09T06:36:11;8.55;;;4.78;;
20122;SDS011;10222;50.848;4.336;2023-07-09T06:38:37;9.02;;;5.25;;
20122;SDS011;10222;50.848;4.336;2023-07-09T06:41:03;9.70;;;6.00;;
20122;SDS011;10222;50.848;4.336;2023-07-09T06:43:29;8.43;;;5.68;;
20122;SDS011;10222;50.848;4.336;2023-07-09T06:46:00;9.80;;;6.05;;
20122;SDS011;10222;50.848;4.336;2023-07-09T06:48:27;12.55;;;6.55;;
20122;SDS011;10222;50.848;4.336;2023-07-09T06:50:54;9.90;;;6.18;;
20122;SDS011;10222;50.848;4.336;2023-07-09T06:53:21;12.57;;;6.75;;
20122;SDS011;10222;50.848;4.336;2023-07-09T06:55:47;14.07;;;7.00;;
20122;SDS011;10222;50.848;4.336;2023-07-09T06:58:18;10.80;;;7.28;;
20122;SDS011;10222;50.848;4.336;2023-07-09T07:00:44;14.13;;;8.57;;
20122;SDS011;10222;50.848;4.336;2023-07-09T07:03:10;14.27;;;8.77;;
20122;SDS011;10222;50.848;4.336;2023-07-09T07:05:36;19.35;;;9.07;;
20122;SDS011;10222;50.848;4.336;2023-07-09T07:08:02;14.30;;;8.70;;
20122;SDS011;10222;50.848;4.336;2023-07-09T07:10:29;14.73;;;8.82;;
20122;SDS011;10222;50.848;4.336;2023-07-09T07:12:55;15.23;;;9.32;;
20122;SDS011;10222;50.848;4.336;2023-07-09T07:15:21;21.70;;;10.48;;
20122;SDS011;10222;50.848;4.336;2023-07-09T07:17:47;17.38;;;10.93;;
20122;SDS011;10222;50.848;4.336;2023-07-09T07:20:17;16.42;;;11.50;;
20122;SDS011;10222;50.848;4.336;2023-07-09T07:22:43;17.67;;;10.45;;
20122;SDS011;10222;50.848;4.336;2023-07-09T07:25:09;19.30;;;11.82;;
20122;SDS011;10222;50.848;4.336;2023-07-09T07:27:36;18.80;;;12.10;;
20122;SDS011;10222;50.848;4.336;2023-07-09T07:30:02;27.48;;;16.17;;
20122;SDS011;10222;50.848;4.336;2023-07-09T07:32:28;26.10;;;17.67;;
20122;SDS011;10222;50.848;4.336;2023-07-09T07:34:54;32.67;;;16.42;;
20122;SDS011;10222;50.848;4.336;2023-07-09T07:37:20;27.02;;;16.15;;
20122;SDS011;10222;50.848;4.336;2023-07-09T07:39:47;30.38;;;17.38;;
20122;SDS011;10222;50.848;4.336;2023-07-09T07:42:13;27.35;;;15.35;;
20122;SDS011;10222;50.848;4.336;2023-07-09T07:44:39;27.13;;;16.27;;
20122;SDS011;10222;50.848;4.336;2023-07-09T07:47:06;26.85;;;16.85;;
20122;SDS011;10222;50.848;4.336;2023-07-09T07:49:32;27.38;;;16.05;;
20122;SDS011;10222;50.848;4.336;2023-07-09T07:51:58;30.55;;;18.25;;
20122;SDS011;10222;50.848;4.336;2023-07-09T07:54:24;29.40;;;18.52;;
20122;SDS011;10222;50.848;4.336;2023-07-09T07:56:50;26.30;;;16.80;;
20122;SDS011;10222;50.848;4.336;2023-07-09T07:59:17;26.50;;;17.08;;
20122;SDS011;10222;50.848;4.336;2023-07-09T08:01:43;30.58;;;16.98;;
20122;SDS011;10222;50.848;4.336;2023-07-09T08:04:09;35.25;;;18.48;;
20122;SDS011;10222;50.848;4.336;2023-07-09T08:06:35;25.48;;;15.70;;
20122;SDS011;10222;50.848;4.336;2023-07-09T08:09:01;26.85;;;16.38;;
20122;SDS011;10222;50.848;4.336;2023-07-09T08:11:27;29.27;;;15.50;;
20122;SDS011;10222;50.848;4.336;2023-07-09T08:13:54;28.65;;;18.60;;
20122;SDS011;10222;50.848;4.336;2023-07-09T08:16:20;24.98;;;14.48;;
20122;SDS011;10222;50.848;4.336;2023-07-09T08:18:46;26.40;;;14.73;;
20122;SDS011;10222;50.848;4.336;2023-07-09T08:21:12;25.30;;;13.45;;
20122;SDS011;10222;50.848;4.336;2023-07-09T08:23:39;27.42;;;14.90;;
20122;SDS011;10222;50.848;4.336;2023-07-09T08:26:05;23.02;;;12.95;;
20122;SDS011;10222;50.848;4.336;2023-07-09T08:28:31;23.55;;;14.07;;
20122;SDS011;10222;50.848;4.336;2023-07-09T08:30:57;20.38;;;12.70;;
20122;SDS011;10222;50.848;4.336;2023-07-09T08:33:23;22.35;;;14.23;;
20122;SDS011;10222;50.848;4.336;2023-07-09T08:35:50;24.80;;;12.75;;
20122;SDS011;10222;50.848;4.336;2023-07-09T08:38:16;24.23;;;14.15;;
20122;SDS011;10222;50.848;4.336;2023-07-09T08:40:42;23.65;;;14.38;;
20122;SDS011;10222;50.848;4.336;2023-07-09T08:43:18;23.27;;;14.57;;
20122;SDS011;10222;50.848;4.336;2023-07-09T08:45:50;27.45;;;14.07;;
20122;SDS011;10222;50.848;4.336;2023-07-09T08:48:28;20.77;;;12.20;;
20122;SDS011;10222;50.848;4.336;2023-07-09T08:50:57;24.30;;;12.90;;
20122;SDS011;10222;50.848;4.336;2023-07-09T08:53:33;25.67;;;14.90;;
20122;SDS011;10222;50.848;4.336;2023-07-09T08:56:00;24.08;;;14.65;;
20122;SDS011;10222;50.848;4.336;2023-07-09T08:58:28;22.10;;;14.35;;
20122;SDS011;10222;50.848;4.336;2023-07-09T09:00:59;20.27;;;12.38;;
20122;SDS011;10222;50.848;4.336;2023-07-09T09:05:55;25.17;;;14.27;;
20122;SDS011;10222;50.848;4.336;2023-07-09T09:10:59;28.85;;;14.07;;
20122;SDS011;10222;50.848;4.336;2023-07-09T09:13:29;25.40;;;13.18;;
20122;SDS011;10222;50.848;4.336;2023-07-09T09:15:58;20.42;;;12.48;;
20122;SDS011;10222;50.848;4.336;2023-07-09T09:18:26;21.52;;;14.77;;
20122;SDS011;10222;50.848;4.336;2023-07-09T09:21:35;19.63;;;12.27;;
20122;SDS011;10222;50.848;4.336;2023-07-09T09:23:48;21.75;;;13.38;;
20122;SDS011;10222;50.848;4.336;2023-07-09T09:26:18;26.48;;;15.18;;
20122;SDS011;10222;50.848;4.336;2023-07-09T09:28:44;22.83;;;13.35;;
20122;SDS011;10222;50.848;4.336;2023-07-09T09:31:10;23.95;;;15.00;;
20122;SDS011;10222;50.848;4.336;2023-07-09T09:33:44;21.42;;;13.60;;
20122;SDS011;10222;50.848;4.336;2023-07-09T09:36:14;22.95;;;13.23;;
20122;SDS011;10222;50.848;4.336;2023-07-09T09:38:40;24.08;;;14.32;;
20122;SDS011;10222;50.848;4.336;2023-07-09T09:41:12;23.20;;;13.65;;
20122;SDS011;10222;50.848;4.336;2023-07-09T09:43:41;24.38;;;14.27;;
20122;SDS011;10222;50.848;4.336;2023-07-09T09:46:07;24.33;;;15.63;;
20122;SDS011;10222;50.848;4.336;2023-07-09T09:48:33;24.48;;;14.70;;
20122;SDS011;10222;50.848;4.336;2023-07-09T09:50:59;19.70;;;13.75;;
20122;SDS011;10222;50.848;4.336;2023-07-09T09:53:28;23.38;;;15.05;;
20122;SDS011;10222;50.848;4.336;2023-07-09T09:55:55;21.25;;;13.77;;
20122;SDS011;10222;50.848;4.336;2023-07-09T09:58:28;19.27;;;11.65;;
20122;SDS011;10222;50.848;4.336;2023-07-09T10:00:55;18.83;;;11.70;;
20122;SDS011;10222;50.848;4.336;2023-07-09T10:03:21;24.95;;;13.05;;
20122;SDS011;10222;50.848;4.336;2023-07-09T10:05:58;18.73;;;11.40;;
20122;SDS011;10222;50.848;4.336;2023-07-09T10:13:59;17.10;;;9.93;;
20122;SDS011;10222;50.848;4.336;2023-07-09T10:16:29;14.73;;;8.85;;
20122;SDS011;10222;50.848;4.336;2023-07-09T10:21:37;14.30;;;9.57;;
20122;SDS011;10222;50.848;4.336;2023-07-09T10:26:48;13.02;;;8.55;;
20122;SDS011;10222;50.848;4.336;2023-07-09T10:29:22;11.25;;;8.45;;
20122;SDS011;10222;50.848;4.336;2023-07-09T10:31:54;12.85;;;7.55;;
20122;SDS011;10222;50.848;4.336;2023-07-09T10:37:08;12.75;;;7.55;;
20122;SDS011;10222;50.848;4.336;2023-07-09T10:39:37;11.80;;;7.25;;
20122;SDS011;10222;50.848;4.336;2023-07-09T10:42:04;13.68;;;8.23;;
20122;SDS011;10222;50.848;4.336;2023-07-09T10:44:34;13.95;;;8.32;;
20122;SDS011;10222;50.848;4.336;2023-07-09T10:47:02;13.18;;;7.38;;
20122;SDS011;10222;50.848;4.336;2023-07-09T10:49:30;15.60;;;8.25;;
20122;SDS011;10222;50.848;4.336;2023-07-09T10:52:17;10.77;;;8.20;;
20122;SDS011;10222;50.848;4.336;2023-07-09T10:57:16;10.88;;;6.10;;
20122;SDS011;10222;50.848;4.336;2023-07-09T10:59:43;10.88;;;7.57;;
20122;SDS011;10222;50.848;4.336;2023-07-09T11:02:14;10.55;;;5.97;;
20122;SDS011;10222;50.848;4.336;2023-07-09T11:04:46;8.77;;;5.20;;
20122;SDS011;10222;50.848;4.336;2023-07-09T11:07:13;6.13;;;4.15;;
20122;SDS011;10222;50.848;4.336;2023-07-09T11:09:43;6.88;;;3.95;;
20122;SDS011;10222;50.848;4.336;2023-07-09T11:14:41;5.50;;;3.08;;
20122;SDS011;10222;50.848;4.336;2023-07-09T11:17:12;7.80;;;3.30;;
20122;SDS011;10222;50.848;4.336;2023-07-09T11:19:43;5.15;;;2.80;;
20122;SDS011;10222;50.848;4.336;2023-07-09T11:22:15;5.97;;;3.30;;
20122;SDS011;10222;50.848;4.336;2023-07-09T11:24:52;5.47;;;3.08;;
20122;SDS011;10222;50.848;4.336;2023-07-09T11:27:23;6.15;;;2.97;;
20122;SDS011;10222;50.848;4.336;2023-07-09T11:30:44;5.07;;;2.90;;
20122;SDS011;10222;50.848;4.336;2023-07-09T11:32:44;6.13;;;2.80;;
20122;SDS011;10222;50.848;4.336;2023-07-09T11:35:19;3.40;;;2.22;;
20122;SDS011;10222;50.848;4.336;2023-07-09T11:37:46;5.85;;;2.55;;
20122;SDS011;10222;50.848;4.336;2023-07-09T11:40:14;6.90;;;2.92;;
20122;SDS011;10222;50.848;4.336;2023-07-09T11:45:16;6.15;;;2.75;;
20122;SDS011;10222;50.848;4.336;2023-07-09T11:47:45;7.13;;;2.58;;
20122;SDS011;10222;50.848;4.336;2023-07-09T11:55:33;6.30;;;2.65;;
20122;SDS011;10222;50.848;4.336;2023-07-09T11:58:04;3.38;;;2.53;;
20122;SDS011;10222;50.848;4.336;2023-07-09T12:00:48;6.43;;;3.08;;
20122;SDS011;10222;50.848;4.336;2023-07-09T12:03:17;6.20;;;3.10;;
20122;SDS011;10222;50.848;4.336;2023-07-09T12:05:50;7.30;;;3.25;;
20122;SDS011;10222;50.848;4.336;2023-07-09T12:08:17;4.32;;;2.60;;
20122;SDS011;10222;50.848;4.336;2023-07-09T12:10:44;6.32;;;3.20;;
20122;SDS011;10222;50.848;4.336;2023-07-09T12:13:10;9.80;;;2.88;;
20122;SDS011;10222;50.848;4.336;2023-07-09T12:15:38;5.85;;;2.40;;
20122;SDS011;10222;50.848;4.336;2023-07-09T12:18:10;5.93;;;3.00;;
20122;SDS011;10222;50.848;4.336;2023-07-09T12:20:36;13.23;;;3.38;;
20122;SDS011;10222;50.848;4.336;2023-07-09T12:26:01;5.90;;;3.00;;
20122;SDS011;10222;50.848;4.336;2023-07-09T12:28:28;5.97;;;3.50;;
20122;SDS011;10222;50.848;4.336;2023-07-09T12:30:54;6.22;;;3.45;;
20122;SDS011;10222;50.848;4.336;2023-07-09T12:33:21;5.38;;;3.55;;
20122;SDS011;10222;50.848;4.336;2023-07-09T12:35:48;9.02;;;3.50;;
20122;SDS011;10222;50.848;4.336;2023-07-09T12:38:16;5.70;;;3.63;;
20122;SDS011;10222;50.848;4.336;2023-07-09T12:40:43;9.38;;;3.42;;
20122;SDS011;10222;50.848;4.336;2023-07-09T12:43:10;5.97;;;3.55;;
20122;SDS011;10222;50.848;4.336;2023-07-09T12:45:38;6.07;;;3.90;;
20122;SDS011;10222;50.848;4.336;2023-07-09T12:48:04;6.53;;;3.45;;
20122;SDS011;10222;50.848;4.336;2023-07-09T12:50:31;9.27;;;4.03;;
20122;SDS011;10222;50.848;4.336;2023-07-09T12:53:12;8.77;;;4.07;;
20122;SDS011;10222;50.848;4.336;2023-07-09T12:55:40;10.38;;;4.05;;
20122;SDS011;10222;50.848;4.336;2023-07-09T12:58:09;10.50;;;4.43;;
20122;SDS011;10222;50.848;4.336;2023-07-09T13:00:37;6.90;;;4.40;;
20122;SDS011;10222;50.848;4.336;2023-07-09T13:03:03;9.07;;;4.38;;
20122;SDS011;10222;50.848;4.336;2023-07-09T13:05:29;8.13;;;4.40;;
20122;SDS011;10222;50.848;4.336;2023-07-09T13:08:01;6.47;;;4.00;;
20122;SDS011;10222;50.848;4.336;2023-07-09T13:10:29;8.10;;;3.95;;
20122;SDS011;10222;50.848;4.336;2023-07-09T13:12:57;8.40;;;4.07;;
20122;SDS011;10222;50.848;4.336;2023-07-09T13:17:49;7.47;;;4.70;;
20122;SDS011;10222;50.848;4.336;2023-07-09T13:20:15;9.05;;;4.30;;
20122;SDS011;10222;50.848;4.336;2023-07-09T13:22:42;5.88;;;3.58;;
20122;SDS011;10222;50.848;4.336;2023-07-09T13:25:08;8.50;;;3.83;;
20122;SDS011;10222;50.848;4.336;2023-07-09T13:27:36;8.13;;;4.35;;
20122;SDS011;10222;50.848;4.336;2023-07-09T13:30:02;7.50;;;3.97;;
20122;SDS011;10222;50.848;4.336;2023-07-09T13:32:28;6.65;;;3.30;;
20122;SDS011;10222;50.848;4.336;2023-07-09T13:34:55;7.63;;;4.70;;
20122;SDS011;10222;50.848;4.336;2023-07-09T13:37:21;9.07;;;4.90;;
20122;SDS011;10222;50.848;4.336;2023-07-09T13:39:47;5.32;;;3.67;;
20122;SDS011;10222;50.848;4.336;2023-07-09T13:42:14;9.20;;;3.53;;
20122;SDS011;10222;50.848;4.336;2023-07-09T13:44:42;8.32;;;4.10;;
20122;SDS011;10222;50.848;4.336;2023-07-09T13:47:10;7.97;;;4.32;;
20122;SDS011;10222;50.848;4.336;2023-07-09T13:49:38;7.03;;;3.58;;
20122;SDS011;10222;50.848;4.336;2023-07-09T13:52:04;6.35;;;4.07;;
20122;SDS011;10222;50.848;4.336;2023-07-09T13:54:31;7.18;;;3.60;;
20122;SDS011;10222;50.848;4.336;2023-07-09T13:57:02;6.75;;;3.38;;
20122;SDS011;10222;50.848;4.336;2023-07-09T13:59:28;6.13;;;3.70;;
20122;SDS011;10222;50.848;4.336;2023-07-09T14:01:55;8.48;;;3.55;;
20122;SDS011;10222;50.848;4.336;2023-07-09T14:04:22;6.45;;;3.35;;
20122;SDS011;10222;50.848;4.336;2023-07-09T14:06:49;7.95;;;3.25;;
20122;SDS011;10222;50.848;4.336;2023-07-09T14:09:15;7.18;;;3.50;;
20122;SDS011;10222;50.848;4.336;2023-07-09T14:11:45;6.38;;;3.28;;
20122;SDS011;10222;50.848;4.336;2023-07-09T14:16:43;8.55;;;3.47;;
20122;SDS011;10222;50.848;4.336;2023-07-09T14:19:13;7.95;;;3.30;;
20122;SDS011;10222;50.848;4.336;2023-07-09T14:21:39;7.60;;;3.03;;
20122;SDS011;10222;50.848;4.336;2023-07-09T14:24:39;4.45;;;2.80;;
20122;SDS011;10222;50.848;4.336;2023-07-09T14:26:58;5.25;;;3.03;;
20122;SDS011;10222;50.848;4.336;2023-07-09T14:29:24;5.70;;;2.47;;
20122;SDS011;10222;50.848;4.336;2023-07-09T14:31:51;8.23;;;2.42;;
20122;SDS011;10222;50.848;4.336;2023-07-09T14:36:46;4.40;;;1.98;;
20122;SDS011;10222;50.848;4.336;2023-07-09T14:39:12;5.28;;;2.80;;
20122;SDS011;10222;50.848;4.336;2023-07-09T14:41:39;4.30;;;2.55;;
20122;SDS011;10222;50.848;4.336;2023-07-09T14:44:15;5.55;;;2.67;;
20122;SDS011;10222;50.848;4.336;2023-07-09T14:46:45;4.72;;;2.25;;
20122;SDS011;10222;50.848;4.336;2023-07-09T14:49:11;4.95;;;2.15;;
20122;SDS011;10222;50.848;4.336;2023-07-09T14:51:37;6.93;;;2.65;;
20122;SDS011;10222;50.848;4.336;2023-07-09T14:54:04;4.40;;;2.38;;
20122;SDS011;10222;50.848;4.336;2023-07-09T14:56:36;3.80;;;2.53;;
20122;SDS011;10222;50.848;4.336;2023-07-09T14:59:02;4.93;;;2.25;;
20122;SDS011;10222;50.848;4.336;2023-07-09T15:01:28;4.00;;;2.40;;
20122;SDS011;10222;50.848;4.336;2023-07-09T15:03:54;5.22;;;2.72;;
20122;SDS011;10222;50.848;4.336;2023-07-09T15:06:20;5.30;;;2.35;;
20122;SDS011;10222;50.848;4.336;2023-07-09T15:08:46;3.72;;;2.28;;
20122;SDS011;10222;50.848;4.336;2023-07-09T15:11:12;5.95;;;2.33;;
20122;SDS011;10222;50.848;4.336;2023-07-09T15:13:38;5.28;;;2.33;;
20122;SDS011;10222;50.848;4.336;2023-07-09T15:16:04;4.65;;;2.20;;
20122;SDS011;10222;50.848;4.336;2023-07-09T15:18:32;3.25;;;2.10;;
20122;SDS011;10222;50.848;4.336;2023-07-09T15:21:02;3.88;;;2.30;;
20122;SDS011;10222;50.848;4.336;2023-07-09T15:23:29;3.42;;;2.20;;
20122;SDS011;10222;50.848;4.336;2023-07-09T15:25:55;4.38;;;2.10;;